createdAt,value
2022-10-25T10:47:24.834Z,1000.04
2022-10-25T10:48:23.952Z,1000.11
2022-10-25T10:49:25.828Z,1000.05
2022-10-25T10:50:23.502Z,1000.07
2022-10-25T10:51:42.943Z,1000.08
2022-10-25T10:53:23.188Z,1000.10
2022-10-25T10:54:22.848Z,1000.10
2022-10-25T10:55:22.784Z,1000.10
2022-10-25T10:56:22.720Z,1000.08
2022-10-25T10:57:23.469Z,1000.06
2022-10-25T10:58:23.242Z,1000.09
2022-10-25T10:59:25.957Z,1000.09
2022-10-25T11:00:23.306Z,1000.10
2022-10-25T11:01:23.961Z,1000.08
2022-10-25T11:02:22.992Z,1000.11
2022-10-25T11:03:23.182Z,1000.08
2022-10-25T11:04:25.318Z,1000.09
2022-10-25T11:05:22.752Z,1000.08
2022-10-25T11:06:26.980Z,1000.09
2022-10-25T11:07:24.762Z,1000.09
2022-10-25T11:08:22.442Z,1000.08
2022-10-25T11:09:22.962Z,1000.12
2022-10-25T11:10:22.621Z,1000.11
2022-10-25T11:11:28.730Z,1000.08
2022-10-25T11:12:26.823Z,1000.08
2022-10-25T11:13:26.660Z,1000.09
2022-10-25T11:14:22.191Z,1000.11
2022-10-25T11:15:24.508Z,1000.09
2022-10-25T11:16:24.410Z,1000.09
2022-10-25T11:17:27.637Z,1000.12
2022-10-25T11:18:22.345Z,1000.12
2022-10-25T11:19:22.508Z,1000.14
2022-10-25T11:20:22.745Z,1000.12
2022-10-25T11:21:22.283Z,1000.15
2022-10-25T11:22:22.346Z,1000.15
2022-10-25T11:23:22.565Z,1000.15
2022-10-25T11:24:21.804Z,1000.17
2022-10-25T11:25:21.995Z,1000.14
2022-10-25T11:26:22.089Z,1000.17
2022-10-25T11:27:22.150Z,1000.17
2022-10-25T11:28:21.787Z,1000.16
2022-10-25T11:29:21.840Z,1000.17
2022-10-25T11:30:22.787Z,1000.15
2022-10-25T11:31:22.388Z,1000.17
2022-10-25T11:32:22.117Z,1000.22
2022-10-25T11:33:21.955Z,1000.22
2022-10-25T11:34:21.661Z,1000.23
2022-10-25T11:35:21.749Z,1000.22
2022-10-25T11:36:21.669Z,1000.21
2022-10-25T11:37:21.624Z,1000.20
2022-10-25T11:38:21.958Z,1000.21
2022-10-25T11:39:22.129Z,1000.23
2022-10-25T11:40:21.668Z,1000.22
2022-10-25T11:41:21.646Z,1000.23
2022-10-25T11:42:22.161Z,1000.22
2022-10-25T11:43:22.113Z,1000.17
2022-10-25T11:44:21.429Z,1000.18
2022-10-25T11:45:21.561Z,1000.16
2022-10-25T11:46:21.510Z,1000.13
2022-10-25T11:47:21.400Z,1000.13
2022-10-25T11:48:21.662Z,1000.10
2022-10-25T11:49:22.348Z,1000.12
2022-10-25T11:50:21.350Z,1000.17
2022-10-25T11:51:21.433Z,1000.14
2022-10-25T11:52:21.188Z,1000.16
2022-10-25T11:53:21.225Z,1000.14
2022-10-25T11:54:21.345Z,1000.14
2022-10-25T11:55:23.519Z,1000.15
2022-10-25T11:56:21.063Z,1000.13
2022-10-25T11:57:21.167Z,1000.15
2022-10-25T11:58:21.085Z,1000.11
2022-10-25T11:59:21.123Z,1000.13
2022-10-25T12:00:21.317Z,1000.12
2022-10-25T12:01:20.997Z,1000.08
2022-10-25T12:02:21.043Z,1000.08
2022-10-25T12:03:21.396Z,1000.07
2022-10-25T12:04:23.317Z,1000.07
2022-10-25T12:05:21.924Z,1000.08
2022-10-25T12:06:21.248Z,1000.09
2022-10-25T12:07:20.860Z,1000.08
2022-10-25T12:08:23.982Z,1000.10
2022-10-25T12:09:20.939Z,1000.15
2022-10-25T12:10:20.903Z,1000.09
2022-10-25T12:11:21.673Z,1000.13
2022-10-25T12:12:21.074Z,1000.11
2022-10-25T12:13:20.726Z,1000.10
2022-10-25T12:14:21.083Z,1000.11
2022-10-25T12:15:20.778Z,1000.13
2022-10-25T12:16:20.953Z,1000.12
2022-10-25T12:17:21.076Z,1000.13
2022-10-25T12:18:23.897Z,1000.18
2022-10-25T12:19:21.485Z,1000.18
2022-10-25T12:20:20.615Z,1000.17
2022-10-25T12:21:20.632Z,1000.17
2022-10-25T12:22:20.482Z,1000.17
2022-10-25T12:23:20.479Z,1000.16
2022-10-25T12:24:20.393Z,1000.15
2022-10-25T12:25:20.399Z,1000.16
2022-10-25T12:26:20.472Z,1000.12
2022-10-25T12:27:20.715Z,1000.11
2022-10-25T12:28:20.803Z,1000.17
2022-10-25T12:29:20.531Z,1000.11
2022-10-25T12:30:20.301Z,1000.13
2022-10-25T12:31:20.305Z,1000.07
2022-10-25T12:32:20.258Z,1000.07
2022-10-25T12:33:20.357Z,1000.06
2022-10-25T12:34:20.187Z,1000.06
2022-10-25T12:35:20.169Z,1000.05
2022-10-25T12:36:20.363Z,1000.06
2022-10-25T12:37:20.812Z,1000.03
2022-10-25T12:38:20.516Z,1000.01
2022-10-25T12:39:20.362Z,1000.02
2022-10-25T12:40:20.163Z,999.97
2022-10-25T12:41:20.027Z,999.97
2022-10-25T12:42:22.528Z,1000.00
2022-10-25T12:43:20.141Z,999.99
2022-10-25T12:44:20.025Z,999.98
2022-10-25T12:45:20.397Z,999.99
2022-10-25T12:46:20.100Z,1000.02
